Terminal Aerodrome Forecast
Issued by NWS Charleston, WV

Current Version | Previous Version | Graphics & Text | Print | Product List | Glossary On
Versions: 1 2 3 4 5 6 7 8 9 10 11 12 13 14 15 16 17 18 19 20 21 22 23 24 25 26 27 28
352
FTUS41 KRLX 201121
TAFHTS
TAF
KHTS 201121Z 2012/2112 12004KT P6SM -SHRA SCT015 OVC025
     FM201300 17006KT P6SM OVC020
     FM201500 21007KT P6SM OVC035
     FM201700 23008KT P6SM BKN040
     FM202100 23006KT P6SM BKN050
     FM210800 20003KT 5SM BR BKN050=

USA.gov is the U.S. government's official web portal to all federal, state and local government web resources and services.